North Town, Illinois
Current Conditions -  °F | °C
As of 12:51 PM on Sunday 23 Nov 2014 (Local Time) from KORD Reporting Station
Overcast Overcast  
Wind Chill: 51°   Ceiling: 1400
Heat Index: 51°   Visibility: 10mi
Dew Point: 48°   Wind: 7mph
Humidity: 89%   Direction: 180°S
Pressure: 29.57"   Gusts: NA
Location:  42.004°N, 87.7052°W
Report Text: KORD 231851Z 18006KT 10SM OVC014 11/09 A2957 RMK AO2 RAB01E45 SLP013 P0001 T01060089
Loading
Personal Weather Stations






























Interactive Weather Map New forecast layout! Learn more

10-Day Weather Forecast

Advertisements
Track Severe Weather on mobile